sensor_id;sensor_type;location;lat;lon;timestamp;P1;durP1;ratioP1;P2;durP2;ratioP2
47113;SDS011;32867;51.556;6.832;2023-11-19T00:03:23;22.40;;;18.08;;
47113;SDS011;32867;51.556;6.832;2023-11-19T00:08:24;23.30;;;16.80;;
47113;SDS011;32867;51.556;6.832;2023-11-19T00:13:27;23.35;;;16.38;;
47113;SDS011;32867;51.556;6.832;2023-11-19T00:18:28;25.88;;;18.42;;
47113;SDS011;32867;51.556;6.832;2023-11-19T00:23:29;17.52;;;12.18;;
47113;SDS011;32867;51.556;6.832;2023-11-19T00:28:30;20.30;;;15.30;;
47113;SDS011;32867;51.556;6.832;2023-11-19T00:33:31;24.23;;;17.38;;
47113;SDS011;32867;51.556;6.832;2023-11-19T00:38:32;24.55;;;17.02;;
47113;SDS011;32867;51.556;6.832;2023-11-19T00:43:33;24.20;;;17.80;;
47113;SDS011;32867;51.556;6.832;2023-11-19T00:48:34;19.05;;;14.38;;
47113;SDS011;32867;51.556;6.832;2023-11-19T00:53:35;16.60;;;14.05;;
47113;SDS011;32867;51.556;6.832;2023-11-19T00:58:37;17.15;;;13.68;;
47113;SDS011;32867;51.556;6.832;2023-11-19T01:03:38;17.98;;;13.85;;
47113;SDS011;32867;51.556;6.832;2023-11-19T01:08:39;13.13;;;11.27;;
47113;SDS011;32867;51.556;6.832;2023-11-19T01:13:40;17.80;;;13.63;;
47113;SDS011;32867;51.556;6.832;2023-11-19T01:18:41;16.73;;;11.40;;
47113;SDS011;32867;51.556;6.832;2023-11-19T01:23:42;14.00;;;9.18;;
47113;SDS011;32867;51.556;6.832;2023-11-19T01:28:43;12.40;;;9.35;;
47113;SDS011;32867;51.556;6.832;2023-11-19T01:33:45;12.20;;;8.85;;
47113;SDS011;32867;51.556;6.832;2023-11-19T01:38:46;12.15;;;9.90;;
47113;SDS011;32867;51.556;6.832;2023-11-19T01:43:47;12.55;;;10.15;;
47113;SDS011;32867;51.556;6.832;2023-11-19T01:48:48;17.80;;;10.98;;
47113;SDS011;32867;51.556;6.832;2023-11-19T01:53:50;15.73;;;9.82;;
47113;SDS011;32867;51.556;6.832;2023-11-19T01:58:52;15.38;;;10.82;;
47113;SDS011;32867;51.556;6.832;2023-11-19T02:03:54;13.48;;;7.75;;
47113;SDS011;32867;51.556;6.832;2023-11-19T02:08:55;15.70;;;8.77;;
47113;SDS011;32867;51.556;6.832;2023-11-19T02:13:56;12.25;;;8.68;;
47113;SDS011;32867;51.556;6.832;2023-11-19T02:18:57;14.40;;;7.57;;
47113;SDS011;32867;51.556;6.832;2023-11-19T02:23:59;20.83;;;8.30;;
47113;SDS011;32867;51.556;6.832;2023-11-19T02:29:00;15.50;;;8.15;;
47113;SDS011;32867;51.556;6.832;2023-11-19T02:34:03;17.02;;;7.13;;
47113;SDS011;32867;51.556;6.832;2023-11-19T02:39:04;12.07;;;6.22;;
47113;SDS011;32867;51.556;6.832;2023-11-19T02:44:10;14.68;;;5.68;;
47113;SDS011;32867;51.556;6.832;2023-11-19T02:49:12;12.30;;;4.97;;
47113;SDS011;32867;51.556;6.832;2023-11-19T02:54:13;10.77;;;4.75;;
47113;SDS011;32867;51.556;6.832;2023-11-19T02:59:14;11.43;;;3.70;;
47113;SDS011;32867;51.556;6.832;2023-11-19T03:04:27;13.68;;;4.25;;
47113;SDS011;32867;51.556;6.832;2023-11-19T03:09:28;12.70;;;3.80;;
47113;SDS011;32867;51.556;6.832;2023-11-19T03:14:29;15.75;;;4.45;;
47113;SDS011;32867;51.556;6.832;2023-11-19T03:19:32;12.80;;;3.33;;
47113;SDS011;32867;51.556;6.832;2023-11-19T03:24:34;12.80;;;3.33;;
47113;SDS011;32867;51.556;6.832;2023-11-19T03:29:35;17.05;;;3.50;;
47113;SDS011;32867;51.556;6.832;2023-11-19T03:34:37;13.23;;;3.42;;
47113;SDS011;32867;51.556;6.832;2023-11-19T03:39:38;9.88;;;3.03;;
47113;SDS011;32867;51.556;6.832;2023-11-19T03:44:39;14.07;;;3.30;;
47113;SDS011;32867;51.556;6.832;2023-11-19T03:49:40;15.77;;;3.40;;
47113;SDS011;32867;51.556;6.832;2023-11-19T03:54:41;15.48;;;3.38;;
47113;SDS011;32867;51.556;6.832;2023-11-19T03:59:42;15.68;;;3.20;;
47113;SDS011;32867;51.556;6.832;2023-11-19T04:04:44;20.45;;;4.00;;
47113;SDS011;32867;51.556;6.832;2023-11-19T04:09:45;21.15;;;4.70;;
47113;SDS011;32867;51.556;6.832;2023-11-19T04:14:46;22.70;;;4.45;;
47113;SDS011;32867;51.556;6.832;2023-11-19T04:19:47;21.63;;;4.75;;
47113;SDS011;32867;51.556;6.832;2023-11-19T04:24:49;22.35;;;5.07;;
47113;SDS011;32867;51.556;6.832;2023-11-19T04:29:50;17.45;;;3.83;;
47113;SDS011;32867;51.556;6.832;2023-11-19T04:34:51;18.73;;;4.00;;
47113;SDS011;32867;51.556;6.832;2023-11-19T04:39:52;22.38;;;3.90;;
47113;SDS011;32867;51.556;6.832;2023-11-19T04:44:53;21.65;;;3.92;;
47113;SDS011;32867;51.556;6.832;2023-11-19T04:49:54;27.38;;;5.18;;
47113;SDS011;32867;51.556;6.832;2023-11-19T04:54:55;30.13;;;5.88;;
47113;SDS011;32867;51.556;6.832;2023-11-19T04:59:56;25.63;;;5.40;;
47113;SDS011;32867;51.556;6.832;2023-11-19T05:04:57;26.27;;;4.72;;
47113;SDS011;32867;51.556;6.832;2023-11-19T05:09:58;19.70;;;3.90;;
47113;SDS011;32867;51.556;6.832;2023-11-19T05:15:00;27.25;;;5.00;;
47113;SDS011;32867;51.556;6.832;2023-11-19T05:20:01;24.52;;;4.90;;
47113;SDS011;32867;51.556;6.832;2023-11-19T05:25:02;24.83;;;5.85;;
47113;SDS011;32867;51.556;6.832;2023-11-19T05:30:04;29.73;;;6.45;;
47113;SDS011;32867;51.556;6.832;2023-11-19T05:35:11;23.27;;;5.53;;
47113;SDS011;32867;51.556;6.832;2023-11-19T05:40:12;26.77;;;5.60;;
47113;SDS011;32867;51.556;6.832;2023-11-19T05:45:16;27.60;;;5.53;;
47113;SDS011;32867;51.556;6.832;2023-11-19T05:50:17;25.70;;;5.40;;
47113;SDS011;32867;51.556;6.832;2023-11-19T05:55:18;30.00;;;4.85;;
47113;SDS011;32867;51.556;6.832;2023-11-19T06:00:19;23.80;;;5.13;;
47113;SDS011;32867;51.556;6.832;2023-11-19T06:05:20;27.00;;;4.18;;
47113;SDS011;32867;51.556;6.832;2023-11-19T06:10:22;23.30;;;5.28;;
47113;SDS011;32867;51.556;6.832;2023-11-19T06:15:25;29.92;;;5.30;;
47113;SDS011;32867;51.556;6.832;2023-11-19T06:20:26;30.60;;;5.95;;
47113;SDS011;32867;51.556;6.832;2023-11-19T06:25:31;31.80;;;5.22;;
47113;SDS011;32867;51.556;6.832;2023-11-19T06:30:33;27.23;;;5.13;;
47113;SDS011;32867;51.556;6.832;2023-11-19T06:35:34;31.27;;;5.78;;
47113;SDS011;32867;51.556;6.832;2023-11-19T06:40:38;21.70;;;4.70;;
47113;SDS011;32867;51.556;6.832;2023-11-19T06:45:41;29.65;;;5.25;;
47113;SDS011;32867;51.556;6.832;2023-11-19T06:50:45;24.65;;;5.10;;
47113;SDS011;32867;51.556;6.832;2023-11-19T06:55:47;25.83;;;5.13;;
47113;SDS011;32867;51.556;6.832;2023-11-19T07:00:48;33.33;;;6.03;;
47113;SDS011;32867;51.556;6.832;2023-11-19T07:05:51;25.23;;;4.82;;
47113;SDS011;32867;51.556;6.832;2023-11-19T07:10:52;25.30;;;4.97;;
47113;SDS011;32867;51.556;6.832;2023-11-19T07:15:55;25.85;;;5.00;;
47113;SDS011;32867;51.556;6.832;2023-11-19T07:20:56;28.67;;;4.65;;
47113;SDS011;32867;51.556;6.832;2023-11-19T07:25:57;35.83;;;5.65;;
47113;SDS011;32867;51.556;6.832;2023-11-19T07:30:58;29.02;;;4.97;;
47113;SDS011;32867;51.556;6.832;2023-11-19T07:35:59;25.58;;;5.13;;
47113;SDS011;32867;51.556;6.832;2023-11-19T07:41:01;29.45;;;5.63;;
47113;SDS011;32867;51.556;6.832;2023-11-19T07:46:02;26.90;;;5.15;;
47113;SDS011;32867;51.556;6.832;2023-11-19T07:51:04;31.20;;;5.82;;
47113;SDS011;32867;51.556;6.832;2023-11-19T07:56:06;26.05;;;5.30;;
47113;SDS011;32867;51.556;6.832;2023-11-19T08:01:07;27.80;;;4.90;;
47113;SDS011;32867;51.556;6.832;2023-11-19T08:06:08;21.98;;;4.60;;
47113;SDS011;32867;51.556;6.832;2023-11-19T08:11:10;30.40;;;6.15;;
47113;SDS011;32867;51.556;6.832;2023-11-19T08:16:11;30.20;;;5.53;;
47113;SDS011;32867;51.556;6.832;2023-11-19T08:21:12;35.85;;;6.25;;
47113;SDS011;32867;51.556;6.832;2023-11-19T08:26:14;32.05;;;5.78;;
47113;SDS011;32867;51.556;6.832;2023-11-19T08:31:15;29.52;;;5.13;;
47113;SDS011;32867;51.556;6.832;2023-11-19T08:36:16;29.17;;;5.70;;
47113;SDS011;32867;51.556;6.832;2023-11-19T08:41:17;29.67;;;5.60;;
47113;SDS011;32867;51.556;6.832;2023-11-19T08:46:19;26.27;;;5.45;;
47113;SDS011;32867;51.556;6.832;2023-11-19T08:51:20;27.63;;;5.53;;
47113;SDS011;32867;51.556;6.832;2023-11-19T08:56:21;32.85;;;5.57;;
47113;SDS011;32867;51.556;6.832;2023-11-19T09:01:22;27.50;;;4.88;;
47113;SDS011;32867;51.556;6.832;2023-11-19T09:06:24;25.55;;;5.45;;
47113;SDS011;32867;51.556;6.832;2023-11-19T09:11:26;25.95;;;4.88;;
47113;SDS011;32867;51.556;6.832;2023-11-19T09:16:27;24.80;;;4.93;;
47113;SDS011;32867;51.556;6.832;2023-11-19T09:21:28;27.17;;;5.95;;
47113;SDS011;32867;51.556;6.832;2023-11-19T09:26:30;37.47;;;5.95;;
47113;SDS011;32867;51.556;6.832;2023-11-19T09:31:31;28.13;;;5.45;;
47113;SDS011;32867;51.556;6.832;2023-11-19T09:36:32;25.15;;;6.32;;
47113;SDS011;32867;51.556;6.832;2023-11-19T09:41:33;24.08;;;5.22;;
47113;SDS011;32867;51.556;6.832;2023-11-19T09:46:34;31.08;;;5.35;;
47113;SDS011;32867;51.556;6.832;2023-11-19T09:51:36;30.65;;;5.53;;
47113;SDS011;32867;51.556;6.832;2023-11-19T09:56:37;29.35;;;5.65;;
47113;SDS011;32867;51.556;6.832;2023-11-19T10:01:39;23.13;;;4.97;;
47113;SDS011;32867;51.556;6.832;2023-11-19T10:06:41;26.45;;;5.65;;
47113;SDS011;32867;51.556;6.832;2023-11-19T10:11:42;24.58;;;5.10;;
47113;SDS011;32867;51.556;6.832;2023-11-19T10:16:43;22.38;;;5.18;;
47113;SDS011;32867;51.556;6.832;2023-11-19T10:21:46;27.67;;;5.55;;
47113;SDS011;32867;51.556;6.832;2023-11-19T10:26:47;27.67;;;5.43;;
47113;SDS011;32867;51.556;6.832;2023-11-19T10:31:55;26.80;;;5.60;;
47113;SDS011;32867;51.556;6.832;2023-11-19T10:36:57;23.15;;;4.80;;
47113;SDS011;32867;51.556;6.832;2023-11-19T10:41:59;26.48;;;5.28;;
47113;SDS011;32867;51.556;6.832;2023-11-19T10:47:18;29.45;;;6.00;;
47113;SDS011;32867;51.556;6.832;2023-11-19T10:52:20;27.55;;;6.30;;
47113;SDS011;32867;51.556;6.832;2023-11-19T10:57:22;29.15;;;5.72;;
47113;SDS011;32867;51.556;6.832;2023-11-19T11:02:25;22.95;;;5.45;;
47113;SDS011;32867;51.556;6.832;2023-11-19T11:07:27;29.95;;;6.18;;
47113;SDS011;32867;51.556;6.832;2023-11-19T11:12:29;29.90;;;5.55;;
47113;SDS011;32867;51.556;6.832;2023-11-19T11:17:35;25.75;;;5.65;;
47113;SDS011;32867;51.556;6.832;2023-11-19T11:22:42;24.08;;;5.38;;
47113;SDS011;32867;51.556;6.832;2023-11-19T11:32:59;21.13;;;5.20;;
47113;SDS011;32867;51.556;6.832;2023-11-19T11:38:08;23.30;;;4.93;;
47113;SDS011;32867;51.556;6.832;2023-11-19T11:48:29;24.42;;;4.63;;
47113;SDS011;32867;51.556;6.832;2023-11-19T11:53:31;24.73;;;5.25;;
47113;SDS011;32867;51.556;6.832;2023-11-19T11:58:35;22.38;;;4.65;;
47113;SDS011;32867;51.556;6.832;2023-11-19T12:03:37;16.05;;;3.97;;
47113;SDS011;32867;51.556;6.832;2023-11-19T12:08:39;22.35;;;4.32;;
47113;SDS011;32867;51.556;6.832;2023-11-19T12:13:47;19.25;;;4.53;;
47113;SDS011;32867;51.556;6.832;2023-11-19T12:18:53;20.92;;;4.13;;
47113;SDS011;32867;51.556;6.832;2023-11-19T12:23:55;24.75;;;4.72;;
47113;SDS011;32867;51.556;6.832;2023-11-19T12:29:05;18.05;;;4.35;;
47113;SDS011;32867;51.556;6.832;2023-11-19T12:34:07;19.98;;;4.47;;
47113;SDS011;32867;51.556;6.832;2023-11-19T12:39:12;24.60;;;5.97;;
47113;SDS011;32867;51.556;6.832;2023-11-19T12:44:13;22.70;;;5.50;;
47113;SDS011;32867;51.556;6.832;2023-11-19T12:49:14;20.55;;;4.72;;
47113;SDS011;32867;51.556;6.832;2023-11-19T12:54:15;20.20;;;4.70;;
47113;SDS011;32867;51.556;6.832;2023-11-19T12:59:17;16.58;;;3.72;;
47113;SDS011;32867;51.556;6.832;2023-11-19T13:04:18;16.83;;;3.78;;
47113;SDS011;32867;51.556;6.832;2023-11-19T13:09:23;16.33;;;3.53;;
47113;SDS011;32867;51.556;6.832;2023-11-19T13:14:35;21.02;;;3.88;;
47113;SDS011;32867;51.556;6.832;2023-11-19T13:19:37;15.63;;;3.40;;
47113;SDS011;32867;51.556;6.832;2023-11-19T13:24:38;20.70;;;3.53;;
47113;SDS011;32867;51.556;6.832;2023-11-19T13:29:40;20.50;;;4.13;;
47113;SDS011;32867;51.556;6.832;2023-11-19T13:34:41;17.05;;;3.97;;
47113;SDS011;32867;51.556;6.832;2023-11-19T13:39:42;21.40;;;5.45;;
47113;SDS011;32867;51.556;6.832;2023-11-19T13:44:43;19.42;;;5.57;;
47113;SDS011;32867;51.556;6.832;2023-11-19T13:49:45;21.15;;;4.65;;
47113;SDS011;32867;51.556;6.832;2023-11-19T13:54:46;19.90;;;5.03;;
47113;SDS011;32867;51.556;6.832;2023-11-19T13:59:47;20.42;;;5.35;;
47113;SDS011;32867;51.556;6.832;2023-11-19T14:04:48;22.92;;;5.05;;
47113;SDS011;32867;51.556;6.832;2023-11-19T14:09:49;20.27;;;4.85;;
47113;SDS011;32867;51.556;6.832;2023-11-19T14:14:50;20.80;;;5.60;;
47113;SDS011;32867;51.556;6.832;2023-11-19T14:19:52;27.25;;;5.78;;
47113;SDS011;32867;51.556;6.832;2023-11-19T14:24:53;22.15;;;5.18;;
47113;SDS011;32867;51.556;6.832;2023-11-19T14:30:06;25.48;;;5.50;;
47113;SDS011;32867;51.556;6.832;2023-11-19T14:35:15;24.10;;;5.47;;
47113;SDS011;32867;51.556;6.832;2023-11-19T14:40:16;20.30;;;4.70;;
47113;SDS011;32867;51.556;6.832;2023-11-19T14:45:17;22.08;;;4.65;;
47113;SDS011;32867;51.556;6.832;2023-11-19T14:50:25;24.88;;;4.90;;
47113;SDS011;32867;51.556;6.832;2023-11-19T14:55:46;24.70;;;5.38;;
47113;SDS011;32867;51.556;6.832;2023-11-19T15:00:47;20.25;;;4.38;;
47113;SDS011;32867;51.556;6.832;2023-11-19T15:05:55;26.45;;;5.13;;
47113;SDS011;32867;51.556;6.832;2023-11-19T15:17:58;15.80;;;4.75;;
47113;SDS011;32867;51.556;6.832;2023-11-19T17:07:07;27.05;;;5.40;;
47113;SDS011;32867;51.556;6.832;2023-11-19T17:43:37;23.15;;;5.55;;
47113;SDS011;32867;51.556;6.832;2023-11-19T18:32:03;28.20;;;7.88;;
47113;SDS011;32867;51.556;6.832;2023-11-19T19:08:42;20.27;;;6.80;;
47113;SDS011;32867;51.556;6.832;2023-11-19T19:26:23;20.60;;;5.72;;
47113;SDS011;32867;51.556;6.832;2023-11-19T19:31:50;17.55;;;5.20;;
47113;SDS011;32867;51.556;6.832;2023-11-19T19:37:08;19.10;;;6.50;;
47113;SDS011;32867;51.556;6.832;2023-11-19T19:42:15;23.73;;;7.65;;
47113;SDS011;32867;51.556;6.832;2023-11-19T19:47:16;28.08;;;10.07;;
47113;SDS011;32867;51.556;6.832;2023-11-19T19:52:28;20.83;;;7.90;;
47113;SDS011;32867;51.556;6.832;2023-11-19T19:57:32;22.20;;;7.90;;
47113;SDS011;32867;51.556;6.832;2023-11-19T20:15:24;20.88;;;8.30;;
47113;SDS011;32867;51.556;6.832;2023-11-19T20:20:25;25.48;;;10.15;;
47113;SDS011;32867;51.556;6.832;2023-11-19T20:25:27;17.67;;;8.05;;
47113;SDS011;32867;51.556;6.832;2023-11-19T20:30:28;22.65;;;8.85;;
47113;SDS011;32867;51.556;6.832;2023-11-19T20:35:29;22.27;;;8.32;;
47113;SDS011;32867;51.556;6.832;2023-11-19T20:40:30;23.35;;;9.43;;
47113;SDS011;32867;51.556;6.832;2023-11-19T20:45:31;23.05;;;8.77;;
47113;SDS011;32867;51.556;6.832;2023-11-19T20:50:32;28.98;;;10.77;;
47113;SDS011;32867;51.556;6.832;2023-11-19T20:55:34;27.65;;;11.70;;
47113;SDS011;32867;51.556;6.832;2023-11-19T21:00:35;28.52;;;9.65;;
47113;SDS011;32867;51.556;6.832;2023-11-19T21:05:42;17.90;;;6.25;;
47113;SDS011;32867;51.556;6.832;2023-11-19T21:10:43;16.08;;;4.47;;
47113;SDS011;32867;51.556;6.832;2023-11-19T21:15:45;22.45;;;5.25;;
47113;SDS011;32867;51.556;6.832;2023-11-19T21:20:46;18.90;;;4.90;;
47113;SDS011;32867;51.556;6.832;2023-11-19T21:25:47;14.07;;;3.80;;
47113;SDS011;32867;51.556;6.832;2023-11-19T21:30:48;19.02;;;3.40;;
47113;SDS011;32867;51.556;6.832;2023-11-19T21:35:52;11.52;;;3.33;;
47113;SDS011;32867;51.556;6.832;2023-11-19T21:40:54;12.45;;;3.25;;
47113;SDS011;32867;51.556;6.832;2023-11-19T21:45:55;14.48;;;3.10;;
47113;SDS011;32867;51.556;6.832;2023-11-19T21:50:56;13.00;;;3.70;;
47113;SDS011;32867;51.556;6.832;2023-11-19T21:56:01;9.00;;;2.95;;
47113;SDS011;32867;51.556;6.832;2023-11-19T22:01:02;7.75;;;3.13;;
47113;SDS011;32867;51.556;6.832;2023-11-19T22:06:04;11.55;;;3.35;;
47113;SDS011;32867;51.556;6.832;2023-11-19T22:11:06;10.80;;;2.67;;
47113;SDS011;32867;51.556;6.832;2023-11-19T22:16:07;13.68;;;3.33;;
47113;SDS011;32867;51.556;6.832;2023-11-19T22:21:08;11.15;;;2.95;;
47113;SDS011;32867;51.556;6.832;2023-11-19T22:26:09;10.27;;;3.70;;
47113;SDS011;32867;51.556;6.832;2023-11-19T22:31:10;11.43;;;3.20;;
47113;SDS011;32867;51.556;6.832;2023-11-19T22:36:12;11.35;;;2.92;;
47113;SDS011;32867;51.556;6.832;2023-11-19T22:41:13;16.85;;;3.72;;
47113;SDS011;32867;51.556;6.832;2023-11-19T22:46:15;11.27;;;3.38;;
47113;SDS011;32867;51.556;6.832;2023-11-19T22:51:16;11.52;;;3.22;;
47113;SDS011;32867;51.556;6.832;2023-11-19T22:56:17;9.20;;;2.85;;
47113;SDS011;32867;51.556;6.832;2023-11-19T23:01:18;11.38;;;3.10;;
47113;SDS011;32867;51.556;6.832;2023-11-19T23:06:20;9.30;;;3.10;;
47113;SDS011;32867;51.556;6.832;2023-11-19T23:11:21;20.05;;;5.05;;
47113;SDS011;32867;51.556;6.832;2023-11-19T23:16:22;15.32;;;5.63;;
47113;SDS011;32867;51.556;6.832;2023-11-19T23:21:25;25.80;;;6.72;;
47113;SDS011;32867;51.556;6.832;2023-11-19T23:26:26;24.17;;;8.27;;
47113;SDS011;32867;51.556;6.832;2023-11-19T23:31:27;24.50;;;7.30;;
47113;SDS011;32867;51.556;6.832;2023-11-19T23:36:28;25.65;;;7.22;;
47113;SDS011;32867;51.556;6.832;2023-11-19T23:41:29;18.25;;;6.78;;
47113;SDS011;32867;51.556;6.832;2023-11-19T23:46:30;19.35;;;6.35;;
47113;SDS011;32867;51.556;6.832;2023-11-19T23:51:32;17.65;;;5.68;;
47113;SDS011;32867;51.556;6.832;2023-11-19T23:56:33;17.83;;;5.18;;
